Airfield :







YOU CAN JOIN US ON...

 
LOGIN :

Register | Disclaimer

   EN    FR    IT 

 









Legend :    VFR   Marginal VFR   IFR   Intensive IFR   Very Intensive IFR
Visi :
Ceiling :
>= 8 km
>= 3000ft
5 to 8 km
1000 to 3000 ft
1500m to 5 km
500 to 1000 ft
800 to 1500m
200 to 500 ft
< 800m
< 200 ft
Symbols :   Thunderstorms  Fog  Heavy snow  Heavy precipitations  Wind > 20 kt






- Airport Elevation : 270 ft
- IATA code : YMX


CYMX - Montreal International Mirabel

CURRENT METAR :
  • 250400Z 27005KT 25SM SKC 09/05 A2989 RMK SLP125

EXPIRED METARs :
  • 250300Z 26005KT 25SM SKC 09/05 A2988 RMK SLP121
  • 250200Z VRB02KT 25SM FEW240 10/05 A2987 RMK CI1 CI TR SLP118
  • 250100Z VRB02KT 25SM FEW060 FEW240 12/06 A2987 RMK SC1CI1 SC TR SLP118
  • 250000Z 33007KT 45SM FEW060 FEW240 15/04 A2985 RMK SC1CI1 SLP112 DENSITY ALT 500FT

TAF TAF CYMX
Valid from the 25 at 00:00 until the 26 at 00:00 UTC


242340Z 2500/2524 31010KT P6SM SCT050
BECMG 2500/2502 33006KT SKC
FM251000 01004KT P6SM FEW240
BECMG 2510/2512 05004KT
BECMG 2513/2515 17004KT
FM251600 20006KT P6SM FEW050 BKN160
BECMG 2520/2522 VRB03KT SCT080 BKN120 RMK NXT FCST BY 250600Z
CZUL FIR / North America



MET'MAP, your aeronautical weather chart ! - Copyright ORBIFLY December 2007 - Disclaimer

ORBIFLY MET'MAP TEAM :

Programming & Development : Alexandra Zaïnal
Original concept : Baudouin d'Aumeries
Technical & hardware support : Manuel Goepfert
Assistance : Marc-Olivier Méhu




SOURCES & CREDITS :

   NOAA